Latest Weather Observations for Kanagulk

IDV60801

Issued at 6:02 am EDT Tuesday 23 December 2014 (issued every 30 minutes, with the page automatically refreshed every 10 minutes)

About weather observations | Map of weather stations | Latest weather observations for VIC | Other Formats
Station Details ID: 079097 Name: KANAGULK Lat: -37.12 Lon: 141.80 Height: 188.8 m
Data from the previous 72 hours. | See also: Recent months at Kanagulk
Date/Time
EDT
Temp
°C
App
Temp
°C
Dew
Point
Rel
Hum
%
Delta-T
°C
Wind Press
QNH
hPa
Press
MSL
hPa
Rain
since 9 am
mm
Dir
 
Spd
km/h
Gust
km/h
Spd
kts
Gust
kts
23/06:00am 16.4 18.5 16.2 99 0.1 CALM 0 0 0 0 1008.8 1008.3 0.2
23/05:30am 16.6 18.0 16.3 98 0.2 SSW 4 9 2 5 1008.7 1008.2 0.2
23/05:00am 17.1 18.0 16.1 94 0.6 WNW 6 9 3 5 1008.9 1008.4 0.2
23/04:30am 17.8 18.3 15.6 87 1.3 W 7 9 4 5 1008.5 1007.9 0.0
23/04:00am 18.2 19.2 15.3 83 1.7 W 4 7 2 4 1008.3 1007.7 0.0
23/03:30am 18.4 18.9 14.9 80 2.1 SW 6 11 3 6 1008.0 1007.4 0.0
23/03:00am 18.8 17.9 14.9 78 2.3 SW 13 20 7 11 1008.2 1007.6 0.0
23/02:30am 19.2 20.2 14.2 73 2.9 W 2 7 1 4 1008.7 1008.2 0.0
23/02:00am 20.0 19.5 13.9 68 3.5 W 9 17 5 9 1008.9 1008.4 0.0
23/01:30am 19.6 20.7 13.5 68 3.5 CALM 0 0 0 0 1008.9 1008.4 0.0
23/01:00am 20.2 21.3 13.4 65 3.9 CALM 0 0 0 0 1008.9 1008.4 0.0
23/12:30am 20.6 21.5 12.8 61 4.5 CALM 0 0 0 0 1008.7 1008.2 0.0
23/12:00am 21.1 21.8 12.3 57 5.0 CALM 0 0 0 0 1008.6 1008.0 0.0
 
Date/Time
EDT
Temp
°C
App
Temp
°C
Dew
Point
Rel
Hum
%
Delta-T
°C
Wind Press
QNH
hPa
Press
MSL
hPa
Rain
since 9 am
mm
Dir
 
Spd
km/h
Gust
km/h
Spd
kts
Gust
kts
22/11:30pm 21.6 22.0 12.5 56 5.2 SW 2 6 1 3 1008.6 1008.0 0.0
22/11:00pm 22.0 22.4 11.4 51 6.0 CALM 0 9 0 5 1008.1 1007.5 0.0
22/10:30pm 22.4 21.6 11.2 49 6.3 SSW 6 7 3 4 1008.2 1007.6 0.0
22/10:00pm 23.0 22.5 10.8 46 6.8 W 4 9 2 5 1008.4 1007.8 0.0
22/09:30pm 23.8 22.6 11.5 46 7.0 W 9 15 5 8 1008.3 1007.7 0.0
22/09:00pm 23.9 23.1 11.6 46 7.0 WSW 7 15 4 8 1008.4 1007.8 0.0
22/08:30pm 24.8 22.4 11.4 43 7.6 SW 15 20 8 11 1007.9 1007.3 0.0
22/08:00pm 25.4 22.8 10.8 40 8.3 WSW 15 20 8 11 1007.8 1007.2 0.0
22/07:30pm 26.0 23.4 10.6 38 8.7 WSW 15 22 8 12 1007.8 1007.2 0.0
22/07:00pm 27.1 23.7 9.0 32 10.0 W 17 30 9 16 1007.2 1006.7 0.0
22/06:30pm 28.3 25.0 8.1 28 11.1 W 15 26 8 14 1006.6 1006.1 0.0
22/06:00pm 29.3 25.2 6.0 23 12.4 NNW 17 32 9 17 1006.5 1006.0 0.0
22/05:30pm 30.1 24.6 6.1 22 12.8 NNW 24 39 13 21 1006.6 1006.1 0.0
22/05:00pm 30.5 25.8 5.0 20 13.5 NNW 19 28 10 15 1006.5 1006.0 0.0
22/04:30pm 31.1 26.3 4.8 19 13.8 NNW 19 28 10 15 1006.5 1006.0 0.0
22/04:00pm 31.0 26.2 4.7 19 13.8 NNW 19 32 10 17 1006.9 1006.4 0.0
22/03:30pm 31.5 26.9 6.5 21 13.6 N 20 26 11 14 1007.1 1006.6 0.0
22/03:00pm 30.1 26.6 7.3 24 12.5 NNE 15 19 8 10 1007.3 1006.8 0.0
22/02:30pm 29.7 25.5 7.6 25 12.1 NNE 19 24 10 13 1008.1 1007.5 0.0
22/02:00pm 28.7 26.0 7.3 26 11.6 N 11 19 6 10 1008.7 1008.2 0.0
22/01:30pm 29.0 24.5 7.0 25 11.9 NNE 20 28 11 15 1008.7 1008.2 0.0
22/01:00pm 27.8 22.9 7.1 27 11.1 NNE 22 30 12 16 1008.7 1008.2 0.0
22/12:30pm 28.1 23.6 6.8 26 11.4 NNE 20 32 11 17 1009.0 1008.5 0.0
22/12:00pm 28.3 23.3 6.4 25 11.7 NNE 22 30 12 16 1009.0 1008.5 0.0
22/11:30am 26.9 23.0 6.9 28 10.6 NNE 17 20 9 11 1009.5 1009.0 0.0
22/11:00am 26.8 22.6 7.3 29 10.5 NNE 19 24 10 13 1009.5 1009.0 0.0
22/10:30am 25.3 22.3 9.2 36 8.9 ENE 15 20 8 11 1009.5 1009.0 0.0
22/10:00am 22.5 22.6 10.3 46 6.7 CALM 0 0 0 0 1010.2 1009.7 0.0
22/09:30am 21.5 19.3 10.9 51 5.9 E 13 19 7 10 1010.0 1009.5 0.0
22/09:00am 20.1 18.8 11.3 57 4.9 E 9 13 5 7 1010.0 1009.5 0.0
22/08:30am 19.2 17.6 11.7 62 4.2 ESE 11 15 6 8 1009.8 1009.3 0.0
22/08:00am 18.3 16.0 11.6 65 3.7 ESE 15 20 8 11 1009.7 1009.2 0.0
22/07:30am 17.5 15.6 11.8 69 3.2 SE 13 19 7 10 1009.8 1009.3 0.0
22/07:00am 17.1 15.2 11.8 71 2.9 SE 13 19 7 10 1009.7 1009.2 0.0
22/06:30am 16.8 14.5 11.7 72 2.8 SE 15 20 8 11 1009.7 1009.2 0.0
22/06:00am 16.9 15.0 11.8 72 2.8 SSE 13 19 7 10 1010.4 1009.9 0.0
22/05:30am 16.2 14.0 12.0 76 2.3 S 15 20 8 11 1009.8 1009.3 0.0
22/05:00am 16.0 13.4 12.0 77 2.2 SE 17 20 9 11 1009.7 1009.2 0.0
22/04:30am 15.6 13.1 12.2 80 1.9 SSE 17 24 9 13 1009.8 1009.3 0.0
22/04:00am 15.2 12.6 12.1 82 1.7 SE 17 20 9 11 1010.1 1009.6 0.0
22/03:30am 15.1 12.1 11.9 81 1.7 SSE 19 24 10 13 1010.5 1010.0 0.0
22/03:00am 15.2 12.0 11.8 80 1.9 SSE 20 26 11 14 1010.9 1010.4 0.0
22/02:30am 15.5 12.4 11.7 78 2.1 SSE 19 24 10 13 1011.3 1010.8 0.0
22/02:00am 15.8 12.6 11.8 77 2.2 SSE 20 28 11 15 1011.5 1011.0 0.0
22/01:30am 15.7 12.1 11.7 77 2.2 SSE 22 32 12 17 1011.7 1011.2 0.0
22/01:00am 15.8 12.2 11.8 77 2.2 SSE 22 28 12 15 1012.0 1011.5 0.0
22/12:30am 16.4 12.3 11.6 73 2.6 SSE 24 33 13 18 1012.1 1011.6 0.0
22/12:00am 16.5 13.1 11.2 71 2.9 SSE 20 32 11 17 1012.5 1012.0 0.0
 
Date/Time
EDT
Temp
°C
App
Temp
°C
Dew
Point
Rel
Hum
%
Delta-T
°C
Wind Press
QNH
hPa
Press
MSL
hPa
Rain
since 9 am
mm
Dir
 
Spd
km/h
Gust
km/h
Spd
kts
Gust
kts
21/11:30pm 16.6 12.6 11.7 73 2.7 SSE 24 30 13 16 1012.6 1012.1 0.0
21/11:00pm 17.5 12.8 12.0 70 3.1 SSE 28 39 15 21 1012.6 1012.1 0.0
21/10:30pm 20.2 15.9 10.9 55 5.1 SSE 24 33 13 18 1012.6 1012.1 0.0
21/10:00pm 21.7 17.5 11.1 51 5.9 SSE 24 39 13 21 1012.4 1011.9 0.0
21/09:30pm 23.1 18.5 10.9 46 6.8 SSE 26 33 14 18 1012.2 1011.7 0.0
21/09:00pm 25.2 21.5 11.4 42 7.9 SSE 22 28 12 15 1012.0 1011.5 0.0
21/08:30pm 27.1 23.7 10.7 35 9.3 SSE 19 26 10 14 1011.6 1011.1 0.0
21/08:00pm 29.0 25.2 9.7 30 10.9 S 20 28 11 15 1011.5 1011.0 0.0
21/07:30pm 30.4 25.7 9.3 27 11.9 SSE 24 33 13 18 1011.2 1010.7 0.0
21/07:00pm 31.0 26.3 9.3 26 12.3 S 24 33 13 18 1010.9 1010.4 0.0
21/06:30pm 31.1 25.6 9.3 26 12.3 S 28 39 15 21 1010.8 1010.3 0.0
21/06:00pm 33.0 28.7 7.1 20 14.3 SSW 19 30 10 16 1010.3 1009.8 0.0
21/05:30pm 32.8 27.7 7.6 21 14.0 SSW 24 37 13 20 1010.5 1010.0 0.0
21/05:00pm 34.2 30.2 4.8 16 15.8 SSW 15 32 8 17 1010.3 1009.8 0.0
21/04:30pm 33.4 28.8 1.3 13 16.2 W 15 30 8 16 1010.6 1010.1 0.0
21/04:00pm 33.4 28.4 1.3 13 16.2 SSW 17 32 9 17 1010.8 1010.3 0.0
21/03:30pm 34.0 29.4 1.7 13 16.4 W 15 30 8 16 1011.1 1010.6 0.0
21/03:00pm 34.3 29.4 1.9 13 16.6 W 17 35 9 19 1011.5 1011.0 0.0
21/02:30pm 33.5 28.8 3.3 15 15.7 WSW 17 30 9 16 1011.8 1011.3 0.0
21/02:00pm 32.9 28.4 1.9 14 15.7 NW 15 26 8 14 1012.1 1011.6 0.0
21/01:30pm 32.7 28.7 2.7 15 15.4 WSW 13 22 7 12 1012.4 1011.9 0.0
21/01:00pm 33.6 29.9 4.3 16 15.5 W 13 30 7 16 1012.7 1012.2 0.0
21/12:30pm 31.5 26.6 4.3 18 14.2 WNW 19 30 10 16 1013.3 1012.8 0.0
21/12:00pm 32.3 28.1 5.7 19 14.3 NNW 17 28 9 15 1013.5 1013.0 0.0
21/11:30am 30.2 25.5 6.1 22 12.9 N 20 33 11 18 1013.8 1013.3 0.0
21/11:00am 28.3 23.8 7.0 26 11.4 N 20 33 11 18 1013.8 1013.3 0.0
21/10:30am 28.5 24.4 7.7 27 11.3 N 19 32 10 17 1013.9 1013.4 0.0
21/10:00am 26.1 21.8 7.7 31 9.9 NNE 20 30 11 16 1014.2 1013.7 0.0
21/09:30am 24.7 20.1 8.2 35 8.9 NNE 22 28 12 15 1014.3 1013.8 0.0
21/09:00am 22.9 18.9 9.0 41 7.5 N 20 30 11 16 1014.3 1013.8 0.0
21/08:30am 21.1 16.5 9.7 48 6.2 NNE 24 32 13 17 1014.0 1013.5 0.0
21/08:00am 19.3 14.7 9.8 54 5.1 NNE 24 32 13 17 1013.9 1013.4 0.0
21/07:30am 16.0 13.7 10.3 69 3.0 NNE 13 17 7 9 1014.1 1013.6 0.0
21/07:00am 12.7 12.9 10.4 86 1.2 CALM 0 0 0 0 1013.8 1013.3 0.0
21/06:30am 10.5 9.0 8.4 87 1.0 ENE 6 9 3 5 1013.4 1012.9 0.0
21/06:00am 10.5 9.0 8.4 87 1.0 ENE 6 9 3 5 1013.4 1012.9 0.0
21/05:30am 10.5 9.6 7.9 84 1.3 ENE 2 7 1 4 1013.4 1012.9 0.0
21/05:00am 10.7 10.5 9.0 89 0.9 CALM 0 0 0 0 1013.7 1013.2 0.0
21/04:30am 11.1 11.1 9.7 91 0.7 CALM 0 0 0 0 1013.5 1013.0 0.0
21/04:00am 10.9 10.7 9.2 89 0.9 CALM 0 0 0 0 1013.5 1013.0 0.0
21/03:30am 11.8 11.7 9.5 86 1.2 CALM 0 0 0 0 1013.5 1013.0 0.0
21/03:00am 11.8 11.6 9.2 84 1.3 CALM 0 0 0 0 1013.4 1012.9 0.0
21/02:30am 12.8 11.7 9.8 82 1.5 SE 6 7 3 4 1013.9 1013.4 0.0
21/02:00am 12.6 10.8 9.6 82 1.5 SSE 9 13 5 7 1014.0 1013.5 0.0
21/01:30am 13.2 11.2 10.0 81 1.7 S 11 13 6 7 1014.4 1013.9 0.0
21/01:00am 12.9 11.0 9.2 78 1.9 SSE 9 11 5 6 1014.7 1014.2 0.0
21/12:30am 14.0 12.2 9.4 74 2.4 SSE 9 13 5 7 1015.1 1014.6 0.0
21/12:00am 15.5 12.8 10.3 71 2.8 SE 15 20 8 11 1015.3 1014.8 0.0
 
Date/Time
EDT
Temp
°C
App
Temp
°C
Dew
Point
Rel
Hum
%
Delta-T
°C
Wind Press
QNH
hPa
Press
MSL
hPa
Rain
since 9 am
mm
Dir
 
Spd
km/h
Gust
km/h
Spd
kts
Gust
kts
20/11:30pm 16.0 12.8 10.1 68 3.1 SSE 17 24 9 13 1015.7 1015.2 0.0
20/11:00pm 16.8 13.3 10.2 65 3.5 SSE 19 24 10 13 1015.8 1015.3 0.0
20/10:30pm 17.7 14.0 10.1 61 4.1 SSE 20 28 11 15 1015.9 1015.4 0.0
20/10:00pm 18.7 14.6 10.0 57 4.7 SSE 22 28 12 15 1015.8 1015.3 0.0
20/09:30pm 20.1 15.6 9.9 52 5.5 SSE 24 32 13 17 1015.6 1015.1 0.0
20/09:00pm 22.2 17.8 9.0 43 7.1 SSE 22 32 12 17 1015.4 1014.9 0.0
20/08:30pm 24.2 20.4 4.0 27 10.0 SSE 13 19 7 10 1015.3 1014.8 0.0
20/08:00pm 25.5 21.7 4.0 25 10.8 S 13 19 7 10 1015.2 1014.7 0.0
20/07:30pm 26.6 22.0 3.8 23 11.5 SSE 17 24 9 13 1014.9 1014.4 0.0
20/07:00pm 27.2 23.5 4.3 23 11.7 S 13 20 7 11 1014.7 1014.2 0.0
20/06:30pm 27.2 23.5 4.3 23 11.7 SSW 13 22 7 12 1014.6 1014.1 0.0
20/06:00pm 27.2 23.5 4.3 23 11.7 SSW 13 24 7 13 1014.7 1014.2 0.0
20/05:30pm 27.2 23.7 5.5 25 11.3 SSW 13 24 7 13 1015.1 1014.6 0.0
20/05:00pm 27.4 23.2 5.6 25 11.4 S 17 24 9 13 1015.3 1014.8 0.0
20/04:30pm 26.9 23.2 6.3 27 10.9 SSE 15 20 8 11 1015.5 1015.0 0.0
20/04:00pm 27.5 24.2 6.3 26 11.2 SW 13 28 7 15 1016.0 1015.5 0.0
20/03:30pm 26.5 24.7 7.0 29 10.4 WSW 6 17 3 9 1016.5 1016.0 0.0
20/03:00pm 25.9 23.1 7.0 30 10.0 SSW 11 20 6 11 1017.0 1016.5 0.0
20/02:30pm 25.6 23.4 7.7 32 9.6 SSW 9 20 5 11 1017.3 1016.8 0.0
20/02:00pm 23.9 20.5 7.5 35 8.7 S 15 26 8 14 1017.8 1017.4 0.0
20/01:30pm 24.6 21.6 7.7 34 9.0 WSW 13 24 7 13 1018.3 1017.9 0.0
20/01:00pm 22.6 20.2 6.8 36 8.2 SW 9 17 5 9 1018.6 1018.2 0.0
20/12:30pm 22.0 19.5 6.7 37 7.9 WSW 9 19 5 10 1019.1 1018.6 0.0
20/12:00pm 22.0 19.5 6.7 37 7.9 SW 9 20 5 11 1019.3 1018.8 0.0
20/11:30am 20.8 18.1 7.4 42 6.9 SSW 11 19 6 10 1019.5 1019.0 0.0
20/11:00am 19.2 16.6 7.6 47 6.0 SW 11 19 6 10 1019.9 1019.4 0.0
20/10:30am 18.7 16.8 8.9 53 5.2 WSW 9 17 5 9 1020.0 1019.5 0.0
20/10:00am 17.5 15.5 8.6 56 4.6 S 9 17 5 9 1020.2 1019.7 0.0
20/09:30am 16.1 14.2 9.1 63 3.6 SSW 9 13 5 7 1020.3 1019.8 0.0
20/09:00am 15.6 12.9 9.1 65 3.4 S 13 19 7 10 1020.3 1019.8 0.0
20/08:30am 15.0 12.9 9.6 70 2.8 SSW 11 17 6 9 1020.0 1019.5 0.0
20/08:00am 13.8 12.4 9.5 75 2.2 SSW 7 11 4 6 1019.4 1018.9 0.0
20/07:30am 11.9 11.2 8.7 81 1.6 SSW 2 7 1 4 1019.2 1018.7 0.0
20/07:00am 9.3 8.9 8.2 93 0.5 CALM 0 0 0 0 1018.8 1018.3 0.0
20/06:30am 7.1 6.2 6.0 93 0.5 CALM 0 0 0 0 1018.6 1018.2 0.0

Other Formats:

Comma delimited format used in spreadsheet applications
http://www.bom.gov.au/fwo/IDV60801/IDV60801.95827.axf

JavaScript Object Notation format (JSON) in row-major order
http://www.bom.gov.au/fwo/IDV60801/IDV60801.95827.json